Weather at Podpeč field

Public forecast

Using degrees Celsius for public forecast. Weather courtesy of forecast.io.

Closest aviation weather report (METAR) to Podpeč field

Closest report is Ljubljana Jože Pučnik Airport, 15.1 nm (28.0 km) N. Retrieved 2021/01/28 06:30 UTC (24 minutes ago):

LJLJ 280630Z VRB01KT 9999 MIFG FEW005 SCT250 M07/M08 Q1013 NOSIG

Closest aviation forecast (TAF) to Podpeč field

Closest forecast is Ljubljana Jože Pučnik Airport, 15.1 nm (28.0 km) N. Retrieved 2021/01/28 06:04 UTC (50 minutes ago):

TAF LATI 280500Z 2806/2906 VRB05KT CAVOK TX10/2812Z TNM01/2905Z TAF LJLJ 280500Z 2806/2906 VRB02KT 9999 FEW003